Time;durP1;ratioP1;P1;durP2;ratioP2;P2;SDS_P1;SDS_P2;PMS_P1;PMS_P2;Temp;Humidity;BMP_temperature;BMP_pressure;BME280_temperature;BME280_humidity;BME280_pressure;Samples;Min_cycle;Max_cycle;Signal;HPM_P1;HPM_P2
2021/12/31 00:01:03;;;;;;;0.00;0.00;;;13.70;99.90;;;;;;5071199;28;20063;-73
2021/12/31 00:03:29;;;;;;;0.00;0.00;;;13.80;99.90;;;;;;5071660;28;20048;-73
2021/12/31 00:05:54;;;;;;;0.00;0.00;;;13.80;99.90;;;;;;5069972;28;20036;-73
2021/12/31 00:08:20;;;;;;;0.00;0.00;;;13.80;99.90;;;;;;5071162;28;20430;-74
2021/12/31 00:10:46;;;;;;;0.00;0.00;;;13.80;99.90;;;;;;5071434;28;20033;-73
2021/12/31 00:13:12;;;;;;;0.00;0.00;;;13.70;99.90;;;;;;5071126;28;20037;-73
2021/12/31 00:15:38;;;;;;;0.00;0.00;;;13.80;99.90;;;;;;5071569;28;20048;-73
2021/12/31 00:18:03;;;;;;;0.00;0.00;;;13.80;99.90;;;;;;5071019;28;20036;-73
2021/12/31 00:20:30;;;;;;;0.52;0.52;;;13.80;99.90;;;;;;5071426;28;20036;-73
2021/12/31 00:25:21;;;;;;;0.00;0.00;;;13.70;99.90;;;;;;5069819;28;20037;-74
2021/12/31 00:27:47;;;;;;;0.40;0.40;;;13.70;99.90;;;;;;5069874;28;20036;-73
2021/12/31 00:30:16;;;;;;;0.10;0.10;;;13.70;99.90;;;;;;5070958;28;20020;-74
2021/12/31 00:32:42;;;;;;;0.00;0.00;;;13.70;99.90;;;;;;5070177;28;20440;-73
2021/12/31 00:35:09;;;;;;;0.22;0.20;;;13.80;99.90;;;;;;5070872;28;20040;-73
2021/12/31 00:37:38;;;;;;;0.15;0.15;;;13.70;99.90;;;;;;5069692;28;20032;-74
2021/12/31 00:40:09;;;;;;;0.45;0.45;;;13.50;99.90;;;;;;5069773;28;20413;-74
2021/12/31 00:42:35;;;;;;;0.00;0.00;;;13.60;99.90;;;;;;5069889;28;20039;-74
2021/12/31 00:45:01;;;;;;;0.00;0.00;;;13.60;99.90;;;;;;5070998;28;20115;-73
2021/12/31 00:47:27;;;;;;;0.00;0.00;;;13.60;99.90;;;;;;5069509;28;20041;-73
2021/12/31 00:49:53;;;;;;;0.00;0.00;;;13.60;99.90;;;;;;5072762;28;20135;-74
2021/12/31 00:52:19;;;;;;;0.03;0.03;;;13.60;99.90;;;;;;5074627;28;20031;-73
2021/12/31 00:54:44;;;;;;;1.02;0.45;;;13.60;99.90;;;;;;5074530;28;20032;-73
2021/12/31 00:57:11;;;;;;;0.00;0.00;;;13.50;99.90;;;;;;5074460;28;20036;-74
2021/12/31 00:59:38;;;;;;;0.47;0.47;;;13.50;99.90;;;;;;5073393;28;20048;-73
2021/12/31 01:02:05;;;;;;;0.88;0.38;;;13.60;99.90;;;;;;5073010;28;20036;-73
2021/12/31 01:04:33;;;;;;;0.00;0.00;;;13.60;99.90;;;;;;5073139;28;20036;-73
2021/12/31 01:07:01;;;;;;;0.00;0.00;;;13.50;99.90;;;;;;5074077;28;20098;-72
2021/12/31 01:09:29;;;;;;;0.00;0.00;;;13.60;99.90;;;;;;5073307;28;20115;-73
2021/12/31 01:11:56;;;;;;;0.00;0.00;;;13.60;99.90;;;;;;5073130;28;20039;-74
2021/12/31 01:17:01;;;;;;;0.20;0.20;;;13.60;99.90;;;;;;5074212;28;20381;-73
2021/12/31 01:21:54;;;;;;;0.00;0.00;;;13.60;99.90;;;;;;5072805;28;20068;-74
2021/12/31 01:24:23;;;;;;;0.00;0.00;;;13.50;99.90;;;;;;5073044;28;20036;-74
2021/12/31 01:26:49;;;;;;;0.13;0.10;;;13.50;99.90;;;;;;5072913;28;20032;-74
2021/12/31 01:29:15;;;;;;;0.10;0.10;;;13.40;99.90;;;;;;5073811;28;20588;-74
2021/12/31 01:31:41;;;;;;;0.98;0.70;;;13.40;99.90;;;;;;5072843;28;20032;-74
2021/12/31 01:34:06;;;;;;;0.00;0.00;;;13.30;99.90;;;;;;5073803;28;20494;-74
2021/12/31 01:36:33;;;;;;;0.00;0.00;;;13.30;99.90;;;;;;5073711;28;20063;-73
2021/12/31 01:38:59;;;;;;;0.00;0.00;;;13.20;99.90;;;;;;5073678;28;20438;-73
2021/12/31 01:41:25;;;;;;;0.00;0.00;;;13.20;99.90;;;;;;5073780;28;20116;-74
2021/12/31 01:43:52;;;;;;;0.00;0.00;;;13.10;99.90;;;;;;5055967;28;20032;-73
2021/12/31 01:46:18;;;;;;;0.40;0.38;;;13.10;99.90;;;;;;5073310;28;20400;-73
2021/12/31 01:51:23;;;;;;;0.20;0.20;;;13.10;99.90;;;;;;5073929;28;20128;-73
2021/12/31 01:53:49;;;;;;;0.00;0.00;;;13.00;99.90;;;;;;5073547;28;20115;-73
2021/12/31 01:56:15;;;;;;;0.10;0.10;;;13.00;99.90;;;;;;5072233;28;20849;-74
2021/12/31 01:58:42;;;;;;;0.00;0.00;;;12.90;99.90;;;;;;5071947;28;20035;-74
2021/12/31 02:01:10;;;;;;;0.03;0.03;;;12.80;99.90;;;;;;5072235;28;20074;-73
2021/12/31 02:03:38;;;;;;;0.00;0.00;;;12.90;99.90;;;;;;5072244;28;20082;-73
2021/12/31 02:06:05;;;;;;;0.38;0.38;;;12.90;99.90;;;;;;5072278;28;20032;-73
2021/12/31 02:08:31;;;;;;;1.85;0.90;;;12.90;99.90;;;;;;5072180;28;20033;-74
2021/12/31 02:10:57;;;;;;;0.10;0.10;;;12.90;99.90;;;;;;5072114;28;20064;-73
2021/12/31 02:13:24;;;;;;;0.00;0.00;;;12.90;99.90;;;;;;5073246;28;20090;-73
2021/12/31 02:15:52;;;;;;;0.00;0.00;;;12.80;99.90;;;;;;5071738;28;20461;-73
2021/12/31 02:18:18;;;;;;;0.55;0.55;;;12.80;99.90;;;;;;5072963;28;20465;-73
2021/12/31 02:20:47;;;;;;;1.15;0.65;;;12.90;99.90;;;;;;5072993;28;20111;-73
2021/12/31 02:23:24;;;;;;;0.10;0.10;;;12.90;99.90;;;;;;5072748;28;20043;-73
2021/12/31 02:25:52;;;;;;;0.00;0.00;;;13.00;99.90;;;;;;5071828;28;20043;-74
2021/12/31 02:28:21;;;;;;;0.00;0.00;;;12.90;99.90;;;;;;5072399;28;20561;-73
2021/12/31 02:30:48;;;;;;;0.00;0.00;;;12.80;99.90;;;;;;5073168;28;20039;-73
2021/12/31 02:33:14;;;;;;;0.15;0.15;;;12.70;99.90;;;;;;5071281;28;20029;-73
2021/12/31 02:35:40;;;;;;;0.10;0.10;;;12.70;99.90;;;;;;5072681;28;20132;-73
2021/12/31 02:38:08;;;;;;;0.00;0.00;;;12.70;99.90;;;;;;5072584;28;20104;-73
2021/12/31 02:40:35;;;;;;;0.03;0.03;;;12.70;99.90;;;;;;5071559;28;20117;-73
2021/12/31 02:43:01;;;;;;;0.15;0.15;;;12.70;99.90;;;;;;5072295;28;20044;-73
2021/12/31 02:45:34;;;;;;;0.20;0.20;;;12.70;99.90;;;;;;5072755;28;20032;-73
2021/12/31 02:48:02;;;;;;;0.00;0.00;;;12.70;99.90;;;;;;5070892;28;20060;-73
2021/12/31 02:50:33;;;;;;;0.32;0.32;;;12.70;99.90;;;;;;5071400;28;20048;-73
2021/12/31 02:53:02;;;;;;;0.32;0.32;;;12.60;99.90;;;;;;5054890;28;20481;-73
2021/12/31 02:55:30;;;;;;;0.00;0.00;;;12.60;99.90;;;;;;5072521;28;20036;-73
2021/12/31 02:57:58;;;;;;;0.13;0.13;;;12.60;99.90;;;;;;5072557;28;20381;-73
2021/12/31 03:00:25;;;;;;;0.00;0.00;;;12.80;99.90;;;;;;5071327;28;20032;-73
2021/12/31 03:02:53;;;;;;;0.00;0.00;;;12.70;99.90;;;;;;5072279;28;20072;-73
2021/12/31 03:05:20;;;;;;;0.20;0.20;;;12.70;99.90;;;;;;5070549;28;20029;-73
2021/12/31 03:07:47;;;;;;;0.00;0.00;;;12.70;99.90;;;;;;5072031;28;20158;-73
2021/12/31 03:10:15;;;;;;;0.52;0.52;;;12.50;99.90;;;;;;5070397;28;20024;-73
2021/12/31 03:12:41;;;;;;;0.00;0.00;;;12.40;99.90;;;;;;5070510;28;20047;-73
2021/12/31 03:15:09;;;;;;;0.20;0.20;;;12.40;99.90;;;;;;5071739;28;20032;-73
2021/12/31 03:17:35;;;;;;;0.00;0.00;;;12.30;99.90;;;;;;5070830;28;20229;-73
2021/12/31 03:20:14;;;;;;;0.00;0.00;;;12.40;99.90;;;;;;5053822;28;20044;-73
2021/12/31 03:22:41;;;;;;;0.63;0.63;;;12.50;99.90;;;;;;5070627;28;20032;-73
2021/12/31 03:25:09;;;;;;;5.35;1.23;;;12.40;99.90;;;;;;5071975;28;20079;-73
2021/12/31 03:27:36;;;;;;;0.10;0.10;;;12.40;99.90;;;;;;5071694;28;20032;-73
2021/12/31 03:30:04;;;;;;;0.00;0.00;;;12.30;99.90;;;;;;5053843;28;20033;-73
2021/12/31 03:32:30;;;;;;;0.00;0.00;;;12.30;99.90;;;;;;5071997;28;20086;-73
2021/12/31 03:34:56;;;;;;;0.03;0.03;;;12.20;99.90;;;;;;5070442;28;20548;-73
2021/12/31 03:37:22;;;;;;;0.00;0.00;;;12.10;99.90;;;;;;5070144;28;20036;-73
2021/12/31 03:39:48;;;;;;;0.00;0.00;;;12.00;99.90;;;;;;5071510;28;20396;-73
2021/12/31 03:42:16;;;;;;;0.00;0.00;;;12.00;99.90;;;;;;5071612;28;20060;-73
2021/12/31 03:44:45;;;;;;;0.10;0.10;;;12.00;99.90;;;;;;5071498;28;20424;-73
2021/12/31 03:47:11;;;;;;;0.00;0.00;;;12.10;99.90;;;;;;5070207;28;20056;-73
2021/12/31 03:49:36;;;;;;;0.00;0.00;;;12.20;99.90;;;;;;5071514;28;20075;-72
2021/12/31 03:52:03;;;;;;;0.10;0.10;;;12.20;99.90;;;;;;5071294;28;20028;-73
2021/12/31 03:54:29;;;;;;;0.35;0.10;;;12.10;99.90;;;;;;5071683;28;20036;-73
2021/12/31 03:56:54;;;;;;;0.10;0.10;;;12.10;99.90;;;;;;5070184;28;20086;-73
2021/12/31 03:59:20;;;;;;;0.05;0.05;;;12.00;99.90;;;;;;5070151;28;20079;-73
2021/12/31 04:01:46;;;;;;;1.23;1.13;;;12.00;99.90;;;;;;5071371;28;20039;-73
2021/12/31 04:04:12;;;;;;;0.35;0.35;;;12.10;99.90;;;;;;5071397;28;20538;-73
2021/12/31 04:06:39;;;;;;;0.00;0.00;;;12.10;99.90;;;;;;5071160;28;20033;-73
2021/12/31 04:09:09;;;;;;;2.17;0.43;;;12.10;99.90;;;;;;5070082;28;20124;-73
2021/12/31 04:11:34;;;;;;;0.00;0.00;;;12.20;99.90;;;;;;5070104;28;20041;-74
2021/12/31 04:14:00;;;;;;;0.00;0.00;;;12.10;99.90;;;;;;5069919;28;20035;-73
2021/12/31 04:16:26;;;;;;;0.00;0.00;;;12.20;99.90;;;;;;5071138;28;20440;-73
2021/12/31 04:18:51;;;;;;;0.28;0.28;;;12.20;99.90;;;;;;5071036;28;20033;-73
2021/12/31 04:21:20;;;;;;;0.00;0.00;;;12.10;99.90;;;;;;5071172;28;20074;-73
2021/12/31 04:23:52;;;;;;;0.00;0.00;;;12.10;99.90;;;;;;5074428;28;20169;-73
2021/12/31 04:26:19;;;;;;;0.30;0.30;;;12.10;99.90;;;;;;5058324;28;20051;-73
2021/12/31 04:28:45;;;;;;;0.00;0.00;;;12.20;99.90;;;;;;5073975;28;20043;-73
2021/12/31 04:31:11;;;;;;;0.10;0.10;;;12.20;99.90;;;;;;5073969;28;20029;-73
2021/12/31 04:33:38;;;;;;;0.00;0.00;;;12.20;99.90;;;;;;5075289;28;20032;-73
2021/12/31 04:36:04;;;;;;;0.10;0.10;;;12.10;99.90;;;;;;5074891;28;20048;-73
2021/12/31 04:38:30;;;;;;;0.63;0.63;;;12.10;99.90;;;;;;5074963;28;20036;-73
2021/12/31 04:40:56;;;;;;;0.00;0.00;;;12.20;99.90;;;;;;5074841;28;20033;-73
2021/12/31 04:43:21;;;;;;;0.00;0.00;;;12.10;99.90;;;;;;5073465;28;20029;-73
2021/12/31 04:45:47;;;;;;;0.00;0.00;;;12.20;99.90;;;;;;5075369;28;20048;-73
2021/12/31 04:48:13;;;;;;;0.45;0.38;;;12.10;99.90;;;;;;5072967;28;20135;-73
2021/12/31 04:50:39;;;;;;;0.22;0.20;;;12.20;99.90;;;;;;5074993;28;20036;-73
2021/12/31 04:53:06;;;;;;;0.10;0.10;;;12.20;99.90;;;;;;5074525;28;20041;-73
2021/12/31 04:55:32;;;;;;;0.47;0.47;;;12.20;99.90;;;;;;5073447;28;20538;-73
2021/12/31 04:57:57;;;;;;;0.00;0.00;;;12.20;99.90;;;;;;5074625;28;20064;-73
2021/12/31 05:00:23;;;;;;;0.00;0.00;;;12.30;99.90;;;;;;5073013;28;20024;-73
2021/12/31 05:02:49;;;;;;;0.00;0.00;;;12.20;99.90;;;;;;5074493;28;20188;-72
2021/12/31 05:05:15;;;;;;;0.15;0.15;;;12.20;99.90;;;;;;5074471;28;20139;-74
2021/12/31 05:07:41;;;;;;;0.00;0.00;;;12.30;99.90;;;;;;5056567;28;20603;-74
2021/12/31 05:10:08;;;;;;;5.47;1.08;;;12.20;99.90;;;;;;5073222;28;20427;-74
2021/12/31 05:12:37;;;;;;;0.00;0.00;;;12.20;99.90;;;;;;5074197;28;20374;-74
2021/12/31 05:15:07;;;;;;;0.00;0.00;;;12.20;99.90;;;;;;5073058;28;20044;-74
2021/12/31 05:17:33;;;;;;;0.15;0.15;;;12.30;99.90;;;;;;5073183;28;20058;-74
2021/12/31 05:20:00;;;;;;;0.25;0.25;;;12.20;99.90;;;;;;5074126;28;20036;-74
2021/12/31 05:22:26;;;;;;;0.00;0.00;;;12.20;99.90;;;;;;5074288;28;20130;-74
2021/12/31 05:24:52;;;;;;;0.32;0.32;;;12.20;99.90;;;;;;5073985;28;20025;-74
2021/12/31 05:27:17;;;;;;;0.00;0.00;;;12.20;99.90;;;;;;5073838;28;20345;-74
2021/12/31 05:29:43;;;;;;;0.00;0.00;;;12.20;99.90;;;;;;5073994;28;20043;-74
2021/12/31 05:32:09;;;;;;;0.13;0.13;;;12.10;99.90;;;;;;5072585;28;20513;-74
2021/12/31 05:34:35;;;;;;;0.45;0.45;;;12.10;99.90;;;;;;5072944;28;20065;-74
2021/12/31 05:37:00;;;;;;;0.10;0.10;;;12.10;99.90;;;;;;5074068;28;20096;-74
2021/12/31 05:39:26;;;;;;;0.00;0.00;;;12.00;99.90;;;;;;5072775;28;20520;-74
2021/12/31 05:41:54;;;;;;;0.10;0.10;;;12.10;99.90;;;;;;5073744;28;20028;-74
2021/12/31 05:44:20;;;;;;;0.17;0.15;;;12.10;99.90;;;;;;5073667;28;20036;-73
2021/12/31 05:46:49;;;;;;;0.00;0.00;;;12.10;99.90;;;;;;5055501;28;20041;-72
2021/12/31 05:49:15;;;;;;;0.25;0.25;;;12.00;99.90;;;;;;5072175;28;20107;-74
2021/12/31 05:51:40;;;;;;;0.20;0.20;;;12.10;99.90;;;;;;5073567;28;20537;-74
2021/12/31 05:54:07;;;;;;;0.80;0.80;;;12.10;99.90;;;;;;5072375;28;20393;-74
2021/12/31 05:56:33;;;;;;;0.00;0.00;;;12.10;99.90;;;;;;5072125;28;20028;-74
2021/12/31 05:58:58;;;;;;;0.35;0.30;;;12.00;99.90;;;;;;5073728;28;20047;-74
2021/12/31 06:01:24;;;;;;;0.17;0.17;;;12.00;99.90;;;;;;5072289;28;20035;-74
2021/12/31 06:03:50;;;;;;;0.00;0.00;;;12.00;99.90;;;;;;5072081;28;20062;-74
2021/12/31 06:06:16;;;;;;;0.00;0.00;;;12.00;99.90;;;;;;5071812;28;20477;-74
2021/12/31 06:08:42;;;;;;;0.13;0.13;;;12.00;99.90;;;;;;5073382;28;20036;-74
2021/12/31 06:11:09;;;;;;;0.73;0.20;;;12.00;99.90;;;;;;5071943;28;20028;-73
2021/12/31 06:13:37;;;;;;;0.20;0.20;;;12.00;99.90;;;;;;5072042;28;20032;-73
2021/12/31 06:16:05;;;;;;;0.00;0.00;;;11.90;99.90;;;;;;5071863;28;20051;-73
2021/12/31 06:18:31;;;;;;;0.00;0.00;;;11.90;99.90;;;;;;5071761;28;20378;-73
2021/12/31 06:20:56;;;;;;;0.65;0.50;;;11.90;99.90;;;;;;5071579;28;20138;-73
2021/12/31 06:23:25;;;;;;;0.00;0.00;;;11.90;99.90;;;;;;5071957;28;20109;-72
2021/12/31 06:25:51;;;;;;;0.10;0.10;;;11.90;99.90;;;;;;5073334;28;20025;-72
2021/12/31 06:28:16;;;;;;;0.05;0.05;;;11.80;99.90;;;;;;5072683;28;20055;-73
2021/12/31 06:30:42;;;;;;;0.00;0.00;;;11.80;99.90;;;;;;5071572;28;20035;-72
2021/12/31 06:33:08;;;;;;;0.30;0.30;;;11.80;99.90;;;;;;5072813;28;20424;-72
2021/12/31 06:35:34;;;;;;;0.03;0.03;;;11.70;99.90;;;;;;5071428;28;20467;-69
2021/12/31 06:38:01;;;;;;;0.00;0.00;;;11.60;99.90;;;;;;5072937;28;20036;-72
2021/12/31 06:40:29;;;;;;;0.00;0.00;;;11.60;99.90;;;;;;5072469;28;20029;-71
2021/12/31 06:42:55;;;;;;;0.13;0.13;;;11.50;99.90;;;;;;5072424;28;20032;-66
2021/12/31 06:45:20;;;;;;;5.57;2.72;;;11.40;99.90;;;;;;5072421;28;20107;-67
2021/12/31 06:47:46;;;;;;;0.10;0.10;;;11.10;99.90;;;;;;5072175;28;20062;-67
2021/12/31 06:50:12;;;;;;;0.45;0.45;;;11.00;99.90;;;;;;5072303;28;20074;-67
2021/12/31 06:52:39;;;;;;;0.52;0.43;;;10.90;99.90;;;;;;5072587;28;20131;-66
2021/12/31 06:55:06;;;;;;;3.13;2.30;;;10.70;99.90;;;;;;5072353;28;20035;-66
2021/12/31 06:57:33;;;;;;;0.70;0.65;;;10.60;99.90;;;;;;5066619;28;20381;-67
2021/12/31 06:59:59;;;;;;;0.38;0.38;;;10.60;99.90;;;;;;5053268;28;20076;-67
2021/12/31 07:02:25;;;;;;;0.32;0.32;;;10.60;99.90;;;;;;5071309;28;20071;-67
2021/12/31 07:04:51;;;;;;;0.35;0.35;;;10.70;99.90;;;;;;5070886;28;20028;-66
2021/12/31 07:07:16;;;;;;;0.00;0.00;;;10.70;99.90;;;;;;5070889;28;20032;-69
2021/12/31 07:09:42;;;;;;;0.08;0.08;;;10.70;99.90;;;;;;5071014;28;20039;-69
2021/12/31 07:12:08;;;;;;;0.00;0.00;;;10.80;99.90;;;;;;5071810;28;20119;-68
2021/12/31 07:14:34;;;;;;;0.00;0.00;;;10.70;99.90;;;;;;5070727;28;20068;-69
2021/12/31 07:17:00;;;;;;;1.25;1.15;;;10.80;99.90;;;;;;5070444;28;20433;-68
2021/12/31 07:19:25;;;;;;;0.10;0.10;;;10.70;99.90;;;;;;5071656;28;20385;-69
2021/12/31 07:21:51;;;;;;;2.25;1.88;;;10.70;99.90;;;;;;5071621;28;20073;-69
2021/12/31 07:24:17;;;;;;;0.15;0.15;;;10.70;99.90;;;;;;5071725;28;20109;-67
2021/12/31 07:26:43;;;;;;;0.20;0.20;;;10.70;99.90;;;;;;5054159;28;20156;-68
2021/12/31 07:29:11;;;;;;;0.00;0.00;;;10.60;99.90;;;;;;5070777;28;20040;-68
2021/12/31 07:31:37;;;;;;;0.73;0.73;;;10.50;99.90;;;;;;5071850;28;20021;-69
2021/12/31 07:34:03;;;;;;;0.57;0.57;;;10.50;99.90;;;;;;5071974;28;20036;-70
2021/12/31 07:36:29;;;;;;;0.43;0.43;;;10.40;99.90;;;;;;5071445;28;20396;-71
2021/12/31 07:39:02;;;;;;;0.47;0.47;;;10.40;99.90;;;;;;5071734;28;20029;-71
2021/12/31 07:41:28;;;;;;;0.30;0.30;;;10.40;99.90;;;;;;5054602;28;20393;-70
2021/12/31 07:43:54;;;;;;;0.00;0.00;;;10.40;99.90;;;;;;5071661;28;20029;-70
2021/12/31 07:46:20;;;;;;;0.73;0.68;;;10.30;99.90;;;;;;5053376;28;20036;-70
2021/12/31 07:48:46;;;;;;;0.10;0.10;;;10.20;99.90;;;;;;5070432;28;20115;-70
2021/12/31 07:51:11;;;;;;;1.20;0.75;;;10.20;99.90;;;;;;5070496;28;20119;-70
2021/12/31 07:53:37;;;;;;;0.05;0.05;;;10.10;99.90;;;;;;5069891;28;20036;-68
2021/12/31 07:56:03;;;;;;;1.08;0.25;;;10.10;99.90;;;;;;5071281;28;20058;-69
2021/12/31 07:58:29;;;;;;;2.83;0.80;;;10.10;99.90;;;;;;5070761;28;20036;-69
2021/12/31 08:00:55;;;;;;;0.10;0.10;;;10.10;99.90;;;;;;5071721;28;20120;-70
2021/12/31 08:03:21;;;;;;;0.20;0.20;;;10.10;99.90;;;;;;5069783;28;20052;-69
2021/12/31 08:05:47;;;;;;;0.30;0.30;;;10.10;99.90;;;;;;5071179;28;20036;-70
2021/12/31 08:08:13;;;;;;;4.38;0.90;;;10.20;99.90;;;;;;5069939;28;20044;-69
2021/12/31 08:10:39;;;;;;;0.35;0.30;;;10.20;99.90;;;;;;5070897;28;20036;-69
2021/12/31 08:13:05;;;;;;;1.17;0.88;;;10.20;99.90;;;;;;5071057;28;20037;-69
2021/12/31 08:15:31;;;;;;;0.35;0.35;;;10.20;99.90;;;;;;5070822;28;20056;-69
2021/12/31 08:17:57;;;;;;;4.97;0.63;;;10.20;99.90;;;;;;5053152;28;20032;-70
2021/12/31 08:20:24;;;;;;;0.13;0.13;;;10.20;99.90;;;;;;5071050;28;20033;-70
2021/12/31 08:22:51;;;;;;;0.57;0.57;;;10.30;99.90;;;;;;5069457;28;20068;-69
2021/12/31 08:25:17;;;;;;;0.20;0.20;;;10.30;99.90;;;;;;5070950;28;20115;-70
2021/12/31 08:27:43;;;;;;;0.47;0.45;;;10.30;99.90;;;;;;5069993;28;20613;-69
2021/12/31 08:30:10;;;;;;;0.00;0.00;;;10.30;99.90;;;;;;5069609;28;20036;-70
2021/12/31 08:32:37;;;;;;;0.00;0.00;;;10.30;99.90;;;;;;5071220;28;20041;-70
2021/12/31 08:35:06;;;;;;;0.88;0.85;;;10.40;99.90;;;;;;5071370;28;20032;-70
2021/12/31 08:37:32;;;;;;;0.63;0.63;;;10.40;99.90;;;;;;5053100;28;20035;-70
2021/12/31 08:39:58;;;;;;;0.45;0.45;;;10.40;99.90;;;;;;5069962;28;20037;-69
2021/12/31 08:42:25;;;;;;;0.93;0.93;;;10.40;99.90;;;;;;5069527;28;20035;-69
2021/12/31 08:44:52;;;;;;;0.52;0.52;;;10.40;99.90;;;;;;5069967;28;20072;-69
2021/12/31 08:47:17;;;;;;;0.55;0.55;;;10.50;99.90;;;;;;5070595;28;20033;-70
2021/12/31 08:49:43;;;;;;;0.32;0.32;;;10.50;99.90;;;;;;5070892;28;20043;-70
2021/12/31 08:52:09;;;;;;;1.30;0.80;;;10.60;99.90;;;;;;5070858;28;20035;-70
2021/12/31 08:54:35;;;;;;;0.32;0.32;;;10.60;99.90;;;;;;5069737;28;20101;-70
2021/12/31 08:57:01;;;;;;;0.30;0.30;;;10.60;99.90;;;;;;5071045;28;20051;-70
2021/12/31 08:59:27;;;;;;;1.48;1.38;;;10.60;99.90;;;;;;5070562;28;20125;-70
2021/12/31 09:01:53;;;;;;;0.85;0.65;;;10.60;99.90;;;;;;5069399;28;20100;-70
2021/12/31 09:04:18;;;;;;;1.95;0.80;;;10.60;99.90;;;;;;5070511;28;20124;-70
2021/12/31 09:06:44;;;;;;;0.30;0.30;;;10.70;99.90;;;;;;5070567;28;20393;-70
2021/12/31 09:09:10;;;;;;;0.47;0.47;;;10.80;99.90;;;;;;5071114;28;20162;-69
2021/12/31 09:11:36;;;;;;;22.73;0.95;;;10.70;99.90;;;;;;5070484;28;20488;-67
2021/12/31 09:14:02;;;;;;;0.20;0.20;;;10.70;99.90;;;;;;5063861;28;20036;-66
2021/12/31 09:16:28;;;;;;;0.10;0.10;;;10.80;99.90;;;;;;5054108;28;20103;-64
2021/12/31 09:18:54;;;;;;;1.45;1.00;;;10.90;99.90;;;;;;5069892;28;20116;-68
2021/12/31 09:21:22;;;;;;;0.47;0.47;;;10.90;99.90;;;;;;5073863;28;20035;-69
2021/12/31 09:23:48;;;;;;;2.05;1.17;;;11.00;99.90;;;;;;5074069;28;20036;-68
2021/12/31 09:26:15;;;;;;;0.45;0.45;;;11.10;99.90;;;;;;5072588;28;20036;-69
2021/12/31 09:28:42;;;;;;;0.60;0.60;;;11.10;99.90;;;;;;5072435;28;20123;-67
2021/12/31 09:31:09;;;;;;;0.45;0.45;;;11.10;99.90;;;;;;5073971;28;20028;-67
2021/12/31 09:33:35;;;;;;;0.30;0.30;;;11.20;99.90;;;;;;5071955;28;20423;-68
2021/12/31 09:36:01;;;;;;;1.38;1.27;;;11.30;99.90;;;;;;5072795;28;20039;-70
2021/12/31 09:38:27;;;;;;;1.10;1.00;;;11.40;99.90;;;;;;5072730;28;20028;-69
2021/12/31 09:40:54;;;;;;;0.22;0.22;;;11.50;99.90;;;;;;5072536;28;20537;-71
2021/12/31 09:43:20;;;;;;;0.50;0.50;;;11.60;99.90;;;;;;5072272;28;20098;-70
2021/12/31 09:45:50;;;;;;;0.20;0.20;;;11.70;99.90;;;;;;5073670;28;20485;-70
2021/12/31 09:48:20;;;;;;;0.53;0.53;;;11.70;99.90;;;;;;5072370;28;20044;-70
2021/12/31 09:50:50;;;;;;;0.93;0.55;;;11.80;99.90;;;;;;5055768;28;20107;-70
2021/12/31 09:53:18;;;;;;;0.32;0.32;;;12.00;99.90;;;;;;5074115;28;20029;-69
2021/12/31 09:55:47;;;;;;;0.00;0.00;;;12.10;99.90;;;;;;5055449;28;20082;-69
2021/12/31 09:58:16;;;;;;;0.10;0.10;;;12.20;99.90;;;;;;5073435;28;20530;-69
2021/12/31 10:00:48;;;;;;;0.70;0.70;;;12.10;99.90;;;;;;5073146;28;20071;-69
2021/12/31 10:03:24;;;;;;;0.00;0.00;;;12.10;99.90;;;;;;5073619;28;20119;-69
2021/12/31 10:05:53;;;;;;;0.75;0.75;;;12.70;99.90;;;;;;5073126;28;20035;-69
2021/12/31 10:08:26;;;;;;;0.03;0.03;;;13.00;99.90;;;;;;5055380;28;20091;-70
2021/12/31 10:11:17;;;;;;;0.38;0.38;;;13.40;99.90;;;;;;5073132;28;20040;-70
2021/12/31 10:13:49;;;;;;;0.10;0.10;;;13.20;99.90;;;;;;5071797;28;20086;-69
2021/12/31 10:16:42;;;;;;;0.25;0.25;;;13.20;99.90;;;;;;5071784;28;20031;-70
2021/12/31 10:19:14;;;;;;;1.13;1.02;;;13.20;99.90;;;;;;5073232;28;20440;-70
2021/12/31 10:21:50;;;;;;;1.10;0.55;;;13.70;99.90;;;;;;5071116;28;20029;-69
2021/12/31 10:24:36;;;;;;;1.42;1.33;;;14.20;99.90;;;;;;5071446;28;20048;-69
2021/12/31 10:27:23;;;;;;;0.15;0.15;;;14.00;99.90;;;;;;5072435;28;20043;-69
2021/12/31 10:30:04;;;;;;;0.52;0.52;;;14.40;99.90;;;;;;5071865;28;20044;-71
2021/12/31 10:32:36;;;;;;;0.50;0.50;;;14.70;99.90;;;;;;5072470;28;20119;-71
2021/12/31 10:35:10;;;;;;;0.20;0.20;;;14.10;99.90;;;;;;5054782;28;20036;-71
2021/12/31 10:37:58;;;;;;;1.13;0.90;;;13.30;99.90;;;;;;5072359;28;20029;-69
2021/12/31 10:40:25;;;;;;;0.68;0.68;;;14.30;99.90;;;;;;5072829;28;20385;-62
2021/12/31 10:43:26;;;;;;;0.00;0.00;;;14.60;99.90;;;;;;5072768;28;20032;-63
2021/12/31 10:46:09;;;;;;;0.47;0.45;;;14.30;99.90;;;;;;5073007;28;20021;-61
2021/12/31 10:48:49;;;;;;;1.48;0.68;;;14.60;99.90;;;;;;5071985;28;20082;-61
2021/12/31 10:51:39;;;;;;;0.37;0.37;;;14.70;99.90;;;;;;5072736;28;20111;-63
2021/12/31 10:54:38;;;;;;;0.10;0.10;;;14.50;99.90;;;;;;5071728;28;20028;-64
2021/12/31 10:57:04;;;;;;;1.33;0.82;;;14.50;99.90;;;;;;5056119;28;20036;-64
2021/12/31 10:59:36;;;;;;;1.65;1.17;;;14.30;99.90;;;;;;5072360;28;20035;-63
2021/12/31 11:02:05;;;;;;;0.95;0.70;;;14.50;99.90;;;;;;5072280;28;20037;-63
2021/12/31 11:04:32;;;;;;;2.25;1.67;;;14.30;99.90;;;;;;5072119;28;20028;-66
2021/12/31 11:07:00;;;;;;;3.70;1.25;;;14.40;99.90;;;;;;5072182;28;20125;-62
2021/12/31 11:09:29;;;;;;;1.38;0.93;;;14.50;99.90;;;;;;5072343;28;20028;-65
2021/12/31 11:11:57;;;;;;;0.45;0.35;;;14.20;99.90;;;;;;5071954;28;20037;-64
2021/12/31 11:14:24;;;;;;;0.20;0.20;;;14.70;99.90;;;;;;5070900;28;20040;-63
2021/12/31 11:16:49;;;;;;;0.05;0.05;;;14.80;99.90;;;;;;5070793;28;20059;-64
2021/12/31 11:19:16;;;;;;;0.52;0.17;;;14.60;99.90;;;;;;5054873;28;20025;-66
2021/12/31 11:21:52;;;;;;;0.28;0.28;;;14.40;99.90;;;;;;5050317;28;20029;-73
2021/12/31 11:24:47;;;;;;;0.80;0.25;;;14.00;99.90;;;;;;5061729;28;20044;-76
2021/12/31 11:27:35;;;;;;;0.35;0.35;;;13.80;99.90;;;;;;5056979;28;20045;-73
2021/12/31 11:30:23;;;;;;;0.00;0.00;;;13.70;99.90;;;;;;5070430;28;20119;-72
2021/12/31 11:32:55;;;;;;;0.73;0.73;;;13.80;99.90;;;;;;5069878;28;20045;-73
2021/12/31 11:35:34;;;;;;;0.15;0.10;;;14.30;99.90;;;;;;5071241;28;20036;-72
2021/12/31 11:38:23;;;;;;;0.47;0.47;;;14.10;99.90;;;;;;5065964;28;20496;-73
2021/12/31 11:41:17;;;;;;;0.13;0.13;;;14.30;99.90;;;;;;5053612;28;20049;-73
2021/12/31 11:43:43;;;;;;;0.10;0.10;;;14.30;99.90;;;;;;5050222;28;20029;-72
2021/12/31 11:46:09;;;;;;;0.13;0.13;;;14.00;99.90;;;;;;5033795;28;20057;-72
2021/12/31 11:48:48;;;;;;;0.57;0.55;;;13.70;99.90;;;;;;5049721;28;20051;-72
2021/12/31 11:51:34;;;;;;;0.22;0.22;;;13.60;99.90;;;;;;5051447;28;20124;-72
2021/12/31 11:53:59;;;;;;;0.10;0.10;;;13.60;99.90;;;;;;5051631;28;20035;-72
2021/12/31 11:56:34;;;;;;;0.15;0.15;;;13.60;99.90;;;;;;5051513;28;20029;-72
2021/12/31 12:01:43;;;;;;;0.32;0.30;;;13.60;99.90;;;;;;5051132;28;20482;-72
2021/12/31 12:04:23;;;;;;;1.55;1.00;;;13.60;99.90;;;;;;5051169;28;20076;-71
2021/12/31 12:07:27;;;;;;;0.50;0.50;;;13.40;99.90;;;;;;5051189;28;20488;-71
2021/12/31 12:10:19;;;;;;;0.30;0.22;;;13.10;99.90;;;;;;5043029;28;20056;-75
2021/12/31 12:12:51;;;;;;;2.72;1.17;;;13.00;99.90;;;;;;5033547;28;20556;-75
2021/12/31 12:15:19;;;;;;;0.22;0.22;;;13.20;99.90;;;;;;5050102;28;20029;-75
2021/12/31 12:17:46;;;;;;;0.52;0.52;;;13.20;99.90;;;;;;5051095;28;20374;-74
2021/12/31 12:20:18;;;;;;;0.80;0.80;;;13.10;99.90;;;;;;5049874;28;20499;-74
2021/12/31 12:22:51;;;;;;;0.00;0.00;;;13.00;99.90;;;;;;5051083;28;20028;-75
2021/12/31 12:25:21;;;;;;;0.10;0.10;;;12.90;99.90;;;;;;5033110;28;20108;-73
2021/12/31 12:28:07;;;;;;;0.00;0.00;;;12.80;99.90;;;;;;5050655;28;20029;-78
2021/12/31 12:30:43;;;;;;;4.38;0.85;;;12.70;99.90;;;;;;5051173;28;20021;-77
2021/12/31 12:35:37;;;;;;;0.00;0.00;;;12.60;99.90;;;;;;5050721;28;20033;-77
2021/12/31 12:38:28;;;;;;;0.00;0.00;;;12.60;99.90;;;;;;5050154;28;20052;-76
2021/12/31 12:40:55;;;;;;;0.22;0.22;;;12.60;99.90;;;;;;5050790;28;20444;-77
2021/12/31 12:43:26;;;;;;;0.38;0.38;;;12.60;99.90;;;;;;5052101;28;20029;-76
2021/12/31 12:46:03;;;;;;;3.30;1.35;;;12.50;99.90;;;;;;5054518;28;20041;-77
2021/12/31 12:48:49;;;;;;;0.40;0.40;;;12.40;99.90;;;;;;5053961;28;20053;-77
2021/12/31 12:51:24;;;;;;;0.10;0.10;;;12.40;99.90;;;;;;5054965;28;20524;-77
2021/12/31 12:53:51;;;;;;;0.20;0.20;;;12.40;99.90;;;;;;5053379;28;20044;-78
2021/12/31 12:56:21;;;;;;;0.00;0.00;;;12.40;99.90;;;;;;5053735;28;20032;-75
2021/12/31 12:58:54;;;;;;;0.10;0.10;;;12.30;99.90;;;;;;5036716;28;20131;-67
2021/12/31 13:01:41;;;;;;;0.28;0.28;;;12.20;99.90;;;;;;5054531;28;20124;-69
2021/12/31 13:04:10;;;;;;;0.50;0.50;;;12.20;99.90;;;;;;5053446;28;20371;-79
2021/12/31 13:06:37;;;;;;;0.00;0.00;;;12.30;99.90;;;;;;5069792;28;20067;-77
2021/12/31 13:09:18;;;;;;;0.17;0.17;;;12.40;99.90;;;;;;5053160;28;20037;-77
2021/12/31 13:11:59;;;;;;;0.10;0.10;;;12.30;99.90;;;;;;5053921;28;20078;-70